sensor_id;sensor_type;location;lat;lon;timestamp;pressure;altitude;pressure_sealevel;temperature;humidity
64230;BME280;50547;49.498;0.092;2023-02-11T00:01:34;1035.78;;;9.85;74.83
64230;BME280;50547;49.498;0.092;2023-02-11T00:04:06;1035.76;;;9.80;74.99
64230;BME280;50547;49.498;0.092;2023-02-11T00:06:35;1035.80;;;9.58;75.63
64230;BME280;50547;49.498;0.092;2023-02-11T00:09:05;1035.78;;;9.41;76.27
64230;BME280;50547;49.498;0.092;2023-02-11T00:11:35;1035.76;;;9.38;76.36
64230;BME280;50547;49.498;0.092;2023-02-11T00:14:05;1035.80;;;9.60;75.43
64230;BME280;50547;49.498;0.092;2023-02-11T00:16:34;1035.80;;;9.56;75.05
64230;BME280;50547;49.498;0.092;2023-02-11T00:19:04;1035.78;;;9.65;75.08
64230;BME280;50547;49.498;0.092;2023-02-11T00:21:34;1035.82;;;9.83;74.75
64230;BME280;50547;49.498;0.092;2023-02-11T00:24:03;1035.82;;;9.90;74.35
64230;BME280;50547;49.498;0.092;2023-02-11T00:26:34;1035.86;;;9.85;74.38
64230;BME280;50547;49.498;0.092;2023-02-11T00:29:04;1035.84;;;9.81;74.77
64230;BME280;50547;49.498;0.092;2023-02-11T00:31:33;1035.76;;;9.90;74.47
64230;BME280;50547;49.498;0.092;2023-02-11T00:34:02;1035.74;;;10.01;74.06
64230;BME280;50547;49.498;0.092;2023-02-11T00:36:31;1035.72;;;10.10;73.67
64230;BME280;50547;49.498;0.092;2023-02-11T00:39:01;1035.70;;;10.16;73.62
64230;BME280;50547;49.498;0.092;2023-02-11T00:41:30;1035.70;;;10.22;73.67
64230;BME280;50547;49.498;0.092;2023-02-11T00:43:59;1035.66;;;10.19;73.76
64230;BME280;50547;49.498;0.092;2023-02-11T00:46:29;1035.62;;;10.10;74.07
64230;BME280;50547;49.498;0.092;2023-02-11T00:48:58;1035.60;;;9.89;74.84
64230;BME280;50547;49.498;0.092;2023-02-11T00:51:27;1035.62;;;9.52;76.14
64230;BME280;50547;49.498;0.092;2023-02-11T00:54:04;1035.64;;;9.42;76.35
64230;BME280;50547;49.498;0.092;2023-02-11T00:56:33;1035.62;;;9.48;75.59
64230;BME280;50547;49.498;0.092;2023-02-11T00:59:02;1035.62;;;9.40;75.91
64230;BME280;50547;49.498;0.092;2023-02-11T01:01:31;1035.62;;;9.60;75.19
64230;BME280;50547;49.498;0.092;2023-02-11T01:04:01;1035.60;;;9.70;74.90
64230;BME280;50547;49.498;0.092;2023-02-11T01:06:30;1035.62;;;9.56;74.93
64230;BME280;50547;49.498;0.092;2023-02-11T01:08:59;1035.60;;;9.48;75.46
64230;BME280;50547;49.498;0.092;2023-02-11T01:11:28;1035.58;;;9.52;75.05
64230;BME280;50547;49.498;0.092;2023-02-11T01:13:58;1035.60;;;9.40;75.57
64230;BME280;50547;49.498;0.092;2023-02-11T01:16:27;1035.52;;;9.43;75.39
64230;BME280;50547;49.498;0.092;2023-02-11T01:18:56;1035.50;;;9.53;74.67
64230;BME280;50547;49.498;0.092;2023-02-11T01:21:25;1035.44;;;9.55;74.44
64230;BME280;50547;49.498;0.092;2023-02-11T01:23:55;1035.46;;;9.59;74.52
64230;BME280;50547;49.498;0.092;2023-02-11T01:26:24;1035.50;;;9.58;74.80
64230;BME280;50547;49.498;0.092;2023-02-11T01:28:54;1035.48;;;9.63;74.80
64230;BME280;50547;49.498;0.092;2023-02-11T01:31:21;1035.44;;;9.61;74.68
64230;BME280;50547;49.498;0.092;2023-02-11T01:33:47;1035.43;;;9.59;74.93
64230;BME280;50547;49.498;0.092;2023-02-11T01:36:17;1035.43;;;9.62;74.82
64230;BME280;50547;49.498;0.092;2023-02-11T01:38:46;1035.41;;;9.65;74.79
64230;BME280;50547;49.498;0.092;2023-02-11T01:41:14;1035.39;;;9.69;74.80
64230;BME280;50547;49.498;0.092;2023-02-11T01:43:46;1035.39;;;9.64;75.21
64230;BME280;50547;49.498;0.092;2023-02-11T01:46:27;1035.39;;;9.56;75.65
64230;BME280;50547;49.498;0.092;2023-02-11T01:49:02;1035.43;;;9.62;75.36
64230;BME280;50547;49.498;0.092;2023-02-11T01:51:36;1035.39;;;9.66;75.34
64230;BME280;50547;49.498;0.092;2023-02-11T01:54:09;1035.33;;;9.69;75.23
64230;BME280;50547;49.498;0.092;2023-02-11T01:56:43;1035.35;;;9.62;75.43
64230;BME280;50547;49.498;0.092;2023-02-11T01:59:19;1035.35;;;9.59;75.60
64230;BME280;50547;49.498;0.092;2023-02-11T02:01:52;1035.35;;;9.60;75.53
64230;BME280;50547;49.498;0.092;2023-02-11T02:04:27;1035.37;;;9.56;75.59
64230;BME280;50547;49.498;0.092;2023-02-11T02:07:01;1035.37;;;9.58;75.43
64230;BME280;50547;49.498;0.092;2023-02-11T02:09:37;1035.37;;;9.57;75.27
64230;BME280;50547;49.498;0.092;2023-02-11T02:12:08;1035.37;;;9.62;75.13
64230;BME280;50547;49.498;0.092;2023-02-11T02:14:38;1035.29;;;9.69;75.02
64230;BME280;50547;49.498;0.092;2023-02-11T02:17:14;1035.23;;;9.69;74.93
64230;BME280;50547;49.498;0.092;2023-02-11T02:20:08;1035.21;;;9.57;75.08
64230;BME280;50547;49.498;0.092;2023-02-11T02:23:21;1035.11;;;9.55;74.63
64230;BME280;50547;49.498;0.092;2023-02-11T02:30:49;1035.09;;;9.19;76.52
64230;BME280;50547;49.498;0.092;2023-02-11T02:33:30;1035.03;;;9.07;77.06
64230;BME280;50547;49.498;0.092;2023-02-11T02:36:07;1035.01;;;8.91;77.73
64230;BME280;50547;49.498;0.092;2023-02-11T02:38:44;1034.98;;;9.02;76.95
64230;BME280;50547;49.498;0.092;2023-02-11T02:41:18;1034.98;;;8.98;77.03
64230;BME280;50547;49.498;0.092;2023-02-11T02:43:50;1034.98;;;9.02;77.03
64230;BME280;50547;49.498;0.092;2023-02-11T02:46:22;1035.00;;;9.04;76.83
64230;BME280;50547;49.498;0.092;2023-02-11T02:48:53;1035.03;;;9.05;76.74
64230;BME280;50547;49.498;0.092;2023-02-11T02:51:40;1035.01;;;9.02;76.97
64230;BME280;50547;49.498;0.092;2023-02-11T02:54:28;1035.00;;;9.01;77.06
64230;BME280;50547;49.498;0.092;2023-02-11T02:57:11;1034.94;;;9.02;76.86
64230;BME280;50547;49.498;0.092;2023-02-11T02:59:54;1034.86;;;9.09;76.39
64230;BME280;50547;49.498;0.092;2023-02-11T03:02:30;1034.84;;;9.03;76.66
64230;BME280;50547;49.498;0.092;2023-02-11T03:05:07;1034.80;;;8.93;77.18
64230;BME280;50547;49.498;0.092;2023-02-11T03:07:43;1034.76;;;8.93;76.98
64230;BME280;50547;49.498;0.092;2023-02-11T03:10:15;1034.72;;;8.94;77.02
64230;BME280;50547;49.498;0.092;2023-02-11T03:12:46;1034.72;;;9.00;77.17
64230;BME280;50547;49.498;0.092;2023-02-11T03:15:17;1034.68;;;9.02;77.18
64230;BME280;50547;49.498;0.092;2023-02-11T03:17:51;1034.72;;;9.04;77.28
64230;BME280;50547;49.498;0.092;2023-02-11T03:20:22;1034.78;;;9.02;77.29
64230;BME280;50547;49.498;0.092;2023-02-11T03:22:56;1034.78;;;9.10;77.13
64230;BME280;50547;49.498;0.092;2023-02-11T03:25:30;1034.82;;;9.18;77.00
64230;BME280;50547;49.498;0.092;2023-02-11T03:28:07;1034.76;;;9.29;76.93
64230;BME280;50547;49.498;0.092;2023-02-11T03:30:39;1034.74;;;9.33;77.26
64230;BME280;50547;49.498;0.092;2023-02-11T03:33:17;1034.74;;;9.31;77.30
64230;BME280;50547;49.498;0.092;2023-02-11T03:35:50;1034.74;;;9.35;77.43
64230;BME280;50547;49.498;0.092;2023-02-11T03:38:24;1034.68;;;9.44;77.26
64230;BME280;50547;49.498;0.092;2023-02-11T03:40:54;1034.70;;;9.28;78.01
64230;BME280;50547;49.498;0.092;2023-02-11T03:43:26;1034.72;;;9.10;78.69
64230;BME280;50547;49.498;0.092;2023-02-11T03:45:59;1034.74;;;9.09;78.57
64230;BME280;50547;49.498;0.092;2023-02-11T03:48:32;1034.74;;;9.08;78.50
64230;BME280;50547;49.498;0.092;2023-02-11T03:51:06;1034.76;;;9.07;78.42
64230;BME280;50547;49.498;0.092;2023-02-11T03:53:40;1034.78;;;9.14;78.29
64230;BME280;50547;49.498;0.092;2023-02-11T03:56:14;1034.72;;;9.11;78.36
64230;BME280;50547;49.498;0.092;2023-02-11T03:58:47;1034.72;;;9.22;78.05
64230;BME280;50547;49.498;0.092;2023-02-11T04:01:16;1034.72;;;9.36;77.52
64230;BME280;50547;49.498;0.092;2023-02-11T04:03:45;1034.72;;;9.44;77.50
64230;BME280;50547;49.498;0.092;2023-02-11T04:06:15;1034.72;;;9.46;77.54
64230;BME280;50547;49.498;0.092;2023-02-11T04:08:44;1034.72;;;9.48;77.67
64230;BME280;50547;49.498;0.092;2023-02-11T04:11:13;1034.70;;;9.48;77.52
64230;BME280;50547;49.498;0.092;2023-02-11T04:13:42;1034.72;;;9.48;77.35
64230;BME280;50547;49.498;0.092;2023-02-11T04:16:11;1034.76;;;9.42;77.64
64230;BME280;50547;49.498;0.092;2023-02-11T04:18:40;1034.80;;;9.31;78.11
64230;BME280;50547;49.498;0.092;2023-02-11T04:21:10;1034.82;;;9.23;78.29
64230;BME280;50547;49.498;0.092;2023-02-11T04:23:39;1034.80;;;9.28;78.16
64230;BME280;50547;49.498;0.092;2023-02-11T04:26:08;1034.74;;;9.33;77.88
64230;BME280;50547;49.498;0.092;2023-02-11T04:28:37;1034.76;;;9.39;77.67
64230;BME280;50547;49.498;0.092;2023-02-11T04:31:06;1034.74;;;9.34;77.91
64230;BME280;50547;49.498;0.092;2023-02-11T04:33:35;1034.74;;;9.25;78.23
64230;BME280;50547;49.498;0.092;2023-02-11T04:36:05;1034.72;;;9.38;77.72
64230;BME280;50547;49.498;0.092;2023-02-11T04:38:34;1034.70;;;9.43;77.58
64230;BME280;50547;49.498;0.092;2023-02-11T04:41:04;1034.70;;;9.47;77.42
64230;BME280;50547;49.498;0.092;2023-02-11T04:43:33;1034.68;;;9.52;77.42
64230;BME280;50547;49.498;0.092;2023-02-11T04:46:02;1034.64;;;9.61;77.22
64230;BME280;50547;49.498;0.092;2023-02-11T04:48:31;1034.68;;;9.60;77.40
64230;BME280;50547;49.498;0.092;2023-02-11T04:51:01;1034.68;;;9.63;77.22
64230;BME280;50547;49.498;0.092;2023-02-11T04:53:30;1034.72;;;9.30;78.50
64230;BME280;50547;49.498;0.092;2023-02-11T04:55:59;1034.74;;;9.32;78.37
64230;BME280;50547;49.498;0.092;2023-02-11T04:58:29;1034.74;;;9.19;78.79
64230;BME280;50547;49.498;0.092;2023-02-11T05:01:04;1034.62;;;9.34;77.71
64230;BME280;50547;49.498;0.092;2023-02-11T05:03:34;1034.66;;;9.30;78.04
64230;BME280;50547;49.498;0.092;2023-02-11T05:06:04;1034.70;;;9.31;78.03
64230;BME280;50547;49.498;0.092;2023-02-11T05:08:33;1034.64;;;9.44;77.68
64230;BME280;50547;49.498;0.092;2023-02-11T05:11:02;1034.62;;;9.54;77.30
64230;BME280;50547;49.498;0.092;2023-02-11T05:13:32;1034.53;;;9.71;76.80
64230;BME280;50547;49.498;0.092;2023-02-11T05:16:01;1034.57;;;9.63;77.27
64230;BME280;50547;49.498;0.092;2023-02-11T05:18:30;1034.60;;;9.71;77.15
64230;BME280;50547;49.498;0.092;2023-02-11T05:21:05;1034.64;;;9.80;76.98
64230;BME280;50547;49.498;0.092;2023-02-11T05:23:34;1034.64;;;9.80;76.94
64230;BME280;50547;49.498;0.092;2023-02-11T05:26:01;1034.70;;;9.77;77.05
64230;BME280;50547;49.498;0.092;2023-02-11T05:28:31;1034.64;;;9.78;76.98
64230;BME280;50547;49.498;0.092;2023-02-11T05:31:01;1034.68;;;9.86;76.65
64230;BME280;50547;49.498;0.092;2023-02-11T05:33:30;1034.72;;;9.59;77.34
64230;BME280;50547;49.498;0.092;2023-02-11T05:36:01;1034.82;;;9.35;77.81
64230;BME280;50547;49.498;0.092;2023-02-11T05:38:30;1034.78;;;9.45;77.27
64230;BME280;50547;49.498;0.092;2023-02-11T05:41:00;1034.76;;;9.38;77.19
64230;BME280;50547;49.498;0.092;2023-02-11T05:43:29;1034.84;;;9.07;77.87
64230;BME280;50547;49.498;0.092;2023-02-11T05:45:59;1034.92;;;9.17;77.35
64230;BME280;50547;49.498;0.092;2023-02-11T05:48:25;1034.96;;;9.02;77.71
64230;BME280;50547;49.498;0.092;2023-02-11T05:50:54;1035.01;;;8.96;77.80
64230;BME280;50547;49.498;0.092;2023-02-11T05:53:23;1034.96;;;9.02;77.29
64230;BME280;50547;49.498;0.092;2023-02-11T05:55:53;1034.96;;;8.97;77.36
64230;BME280;50547;49.498;0.092;2023-02-11T05:58:22;1034.92;;;9.05;77.09
64230;BME280;50547;49.498;0.092;2023-02-11T06:00:51;1034.90;;;8.87;77.80
64230;BME280;50547;49.498;0.092;2023-02-11T06:03:20;1034.94;;;8.65;78.58
64230;BME280;50547;49.498;0.092;2023-02-11T06:05:49;1034.94;;;8.31;79.87
64230;BME280;50547;49.498;0.092;2023-02-11T06:08:18;1035.01;;;8.10;80.49
64230;BME280;50547;49.498;0.092;2023-02-11T06:10:47;1034.92;;;8.13;79.74
64230;BME280;50547;49.498;0.092;2023-02-11T06:13:17;1034.90;;;7.97;80.39
64230;BME280;50547;49.498;0.092;2023-02-11T06:15:54;1034.92;;;7.77;80.85
64230;BME280;50547;49.498;0.092;2023-02-11T06:18:24;1034.86;;;7.74;80.56
64230;BME280;50547;49.498;0.092;2023-02-11T06:20:53;1034.76;;;7.85;80.08
64230;BME280;50547;49.498;0.092;2023-02-11T06:23:23;1034.84;;;7.97;79.76
64230;BME280;50547;49.498;0.092;2023-02-11T06:25:52;1034.86;;;7.97;80.05
64230;BME280;50547;49.498;0.092;2023-02-11T06:28:21;1034.88;;;7.96;80.39
64230;BME280;50547;49.498;0.092;2023-02-11T06:30:50;1034.88;;;8.08;80.01
64230;BME280;50547;49.498;0.092;2023-02-11T06:33:19;1034.88;;;8.07;80.14
64230;BME280;50547;49.498;0.092;2023-02-11T06:35:49;1034.90;;;8.08;80.46
64230;BME280;50547;49.498;0.092;2023-02-11T06:38:18;1034.96;;;8.14;80.42
64230;BME280;50547;49.498;0.092;2023-02-11T06:40:48;1034.94;;;8.43;79.64
64230;BME280;50547;49.498;0.092;2023-02-11T06:43:17;1034.98;;;8.56;79.36
64230;BME280;50547;49.498;0.092;2023-02-11T06:45:51;1035.01;;;8.50;80.00
64230;BME280;50547;49.498;0.092;2023-02-11T06:48:22;1035.01;;;8.40;80.55
64230;BME280;50547;49.498;0.092;2023-02-11T06:50:51;1035.01;;;8.50;80.28
64230;BME280;50547;49.498;0.092;2023-02-11T06:53:20;1034.98;;;8.48;80.34
64230;BME280;50547;49.498;0.092;2023-02-11T06:55:50;1034.96;;;8.46;80.65
64230;BME280;50547;49.498;0.092;2023-02-11T06:58:19;1034.96;;;8.53;80.37
64230;BME280;50547;49.498;0.092;2023-02-11T07:00:48;1034.96;;;8.80;79.36
64230;BME280;50547;49.498;0.092;2023-02-11T07:03:17;1034.94;;;8.69;79.93
64230;BME280;50547;49.498;0.092;2023-02-11T07:05:46;1034.96;;;8.69;80.15
64230;BME280;50547;49.498;0.092;2023-02-11T07:08:15;1034.98;;;8.71;80.11
64230;BME280;50547;49.498;0.092;2023-02-11T07:10:44;1035.03;;;8.57;80.66
64230;BME280;50547;49.498;0.092;2023-02-11T07:13:14;1035.01;;;8.51;80.98
64230;BME280;50547;49.498;0.092;2023-02-11T07:15:43;1035.05;;;8.49;80.90
64230;BME280;50547;49.498;0.092;2023-02-11T07:18:12;1035.01;;;8.45;81.08
64230;BME280;50547;49.498;0.092;2023-02-11T07:20:41;1035.03;;;8.52;80.79
64230;BME280;50547;49.498;0.092;2023-02-11T07:23:10;1035.00;;;8.47;81.14
64230;BME280;50547;49.498;0.092;2023-02-11T07:25:40;1035.07;;;8.43;81.30
64230;BME280;50547;49.498;0.092;2023-02-11T07:28:09;1035.11;;;8.45;81.40
64230;BME280;50547;49.498;0.092;2023-02-11T07:30:38;1035.07;;;8.49;81.25
64230;BME280;50547;49.498;0.092;2023-02-11T07:33:07;1035.09;;;8.53;81.10
64230;BME280;50547;49.498;0.092;2023-02-11T07:35:36;1035.05;;;8.71;80.45
64230;BME280;50547;49.498;0.092;2023-02-11T07:38:05;1035.13;;;8.64;81.08
64230;BME280;50547;49.498;0.092;2023-02-11T07:40:35;1035.19;;;8.61;81.53
64230;BME280;50547;49.498;0.092;2023-02-11T07:43:04;1035.21;;;8.55;81.64
64230;BME280;50547;49.498;0.092;2023-02-11T07:45:33;1035.21;;;8.53;81.61
64230;BME280;50547;49.498;0.092;2023-02-11T07:48:03;1035.23;;;8.53;81.58
64230;BME280;50547;49.498;0.092;2023-02-11T07:50:32;1035.21;;;8.70;81.22
64230;BME280;50547;49.498;0.092;2023-02-11T07:53:01;1035.19;;;8.80;81.30
64230;BME280;50547;49.498;0.092;2023-02-11T07:55:32;1035.19;;;8.89;81.25
64230;BME280;50547;49.498;0.092;2023-02-11T07:58:01;1035.21;;;9.23;80.41
64230;BME280;50547;49.498;0.092;2023-02-11T08:00:30;1035.17;;;9.33;80.38
64230;BME280;50547;49.498;0.092;2023-02-11T08:02:59;1035.23;;;9.43;80.70
64230;BME280;50547;49.498;0.092;2023-02-11T08:05:29;1035.25;;;9.50;80.65
64230;BME280;50547;49.498;0.092;2023-02-11T08:07:58;1035.23;;;9.53;80.57
64230;BME280;50547;49.498;0.092;2023-02-11T08:10:27;1035.21;;;9.55;80.89
64230;BME280;50547;49.498;0.092;2023-02-11T08:12:56;1035.19;;;9.67;80.56
64230;BME280;50547;49.498;0.092;2023-02-11T08:15:25;1035.23;;;9.77;80.28
64230;BME280;50547;49.498;0.092;2023-02-11T08:17:54;1035.27;;;9.86;80.46
64230;BME280;50547;49.498;0.092;2023-02-11T08:20:24;1035.29;;;9.78;80.73
64230;BME280;50547;49.498;0.092;2023-02-11T08:22:53;1035.31;;;9.94;80.29
64230;BME280;50547;49.498;0.092;2023-02-11T08:25:20;1035.31;;;10.09;79.76
64230;BME280;50547;49.498;0.092;2023-02-11T08:27:50;1035.31;;;9.93;80.12
64230;BME280;50547;49.498;0.092;2023-02-11T08:30:19;1035.31;;;9.97;80.15
64230;BME280;50547;49.498;0.092;2023-02-11T08:32:49;1035.25;;;10.13;79.80
64230;BME280;50547;49.498;0.092;2023-02-11T08:35:18;1035.33;;;10.27;79.48
64230;BME280;50547;49.498;0.092;2023-02-11T08:37:47;1035.39;;;10.08;79.82
64230;BME280;50547;49.498;0.092;2023-02-11T08:40:17;1035.29;;;9.94;79.72
64230;BME280;50547;49.498;0.092;2023-02-11T08:42:46;1035.33;;;10.00;79.42
64230;BME280;50547;49.498;0.092;2023-02-11T08:45:15;1035.29;;;10.14;79.09
64230;BME280;50547;49.498;0.092;2023-02-11T08:47:45;1035.33;;;10.34;78.63
64230;BME280;50547;49.498;0.092;2023-02-11T08:50:14;1035.31;;;10.26;79.10
64230;BME280;50547;49.498;0.092;2023-02-11T08:52:43;1035.31;;;10.26;79.27
64230;BME280;50547;49.498;0.092;2023-02-11T08:55:12;1035.31;;;10.30;79.15
64230;BME280;50547;49.498;0.092;2023-02-11T08:57:41;1035.33;;;10.48;78.72
64230;BME280;50547;49.498;0.092;2023-02-11T09:00:09;1035.31;;;10.48;78.48
64230;BME280;50547;49.498;0.092;2023-02-11T09:02:38;1035.29;;;10.22;79.29
64230;BME280;50547;49.498;0.092;2023-02-11T09:05:07;1035.23;;;9.87;80.20
64230;BME280;50547;49.498;0.092;2023-02-11T09:07:37;1035.23;;;9.87;79.95
64230;BME280;50547;49.498;0.092;2023-02-11T09:10:07;1035.23;;;9.93;79.65
64230;BME280;50547;49.498;0.092;2023-02-11T09:12:36;1035.25;;;9.88;79.80
64230;BME280;50547;49.498;0.092;2023-02-11T09:15:06;1035.21;;;10.05;79.24
64230;BME280;50547;49.498;0.092;2023-02-11T09:17:35;1035.19;;;10.14;79.38
64230;BME280;50547;49.498;0.092;2023-02-11T09:20:05;1035.21;;;10.14;79.98
64230;BME280;50547;49.498;0.092;2023-02-11T09:22:32;1035.25;;;10.25;79.80
64230;BME280;50547;49.498;0.092;2023-02-11T09:25:01;1035.25;;;10.27;79.61
64230;BME280;50547;49.498;0.092;2023-02-11T09:27:30;1035.31;;;9.99;81.04
64230;BME280;50547;49.498;0.092;2023-02-11T09:29:59;1035.29;;;9.66;82.20
64230;BME280;50547;49.498;0.092;2023-02-11T09:32:28;1035.31;;;9.80;81.18
64230;BME280;50547;49.498;0.092;2023-02-11T09:34:57;1035.37;;;10.02;80.05
64230;BME280;50547;49.498;0.092;2023-02-11T09:37:27;1035.35;;;9.91;80.58
64230;BME280;50547;49.498;0.092;2023-02-11T09:39:56;1035.41;;;9.96;80.60
64230;BME280;50547;49.498;0.092;2023-02-11T09:42:39;1035.44;;;10.02;80.08
64230;BME280;50547;49.498;0.092;2023-02-11T09:45:16;1035.41;;;10.12;79.89
64230;BME280;50547;49.498;0.092;2023-02-11T09:47:55;1035.43;;;9.99;80.33
64230;BME280;50547;49.498;0.092;2023-02-11T09:50:31;1035.44;;;9.93;80.94
64230;BME280;50547;49.498;0.092;2023-02-11T09:53:04;1035.46;;;9.97;80.80
64230;BME280;50547;49.498;0.092;2023-02-11T09:55:37;1035.48;;;10.05;80.34
64230;BME280;50547;49.498;0.092;2023-02-11T09:58:11;1035.50;;;10.14;80.15
64230;BME280;50547;49.498;0.092;2023-02-11T10:00:43;1035.56;;;10.21;80.06
64230;BME280;50547;49.498;0.092;2023-02-11T10:03:25;1035.56;;;10.25;80.17
64230;BME280;50547;49.498;0.092;2023-02-11T10:06:12;1035.54;;;10.22;80.60
64230;BME280;50547;49.498;0.092;2023-02-11T10:08:53;1035.56;;;10.25;80.43
64230;BME280;50547;49.498;0.092;2023-02-11T10:11:35;1035.54;;;10.35;80.30
64230;BME280;50547;49.498;0.092;2023-02-11T10:14:22;1035.62;;;10.45;80.23
64230;BME280;50547;49.498;0.092;2023-02-11T10:17:01;1035.62;;;10.32;80.85
64230;BME280;50547;49.498;0.092;2023-02-11T10:19:46;1035.62;;;10.34;80.95
64230;BME280;50547;49.498;0.092;2023-02-11T10:22:21;1035.64;;;10.40;80.57
64230;BME280;50547;49.498;0.092;2023-02-11T10:24:55;1035.60;;;10.22;81.22
64230;BME280;50547;49.498;0.092;2023-02-11T10:27:28;1035.60;;;10.13;81.51
64230;BME280;50547;49.498;0.092;2023-02-11T10:30:03;1035.56;;;10.33;80.26
64230;BME280;50547;49.498;0.092;2023-02-11T10:32:38;1035.60;;;10.29;80.70
64230;BME280;50547;49.498;0.092;2023-02-11T10:35:15;1035.62;;;10.42;80.34
64230;BME280;50547;49.498;0.092;2023-02-11T10:37:44;1035.62;;;10.53;80.21
64230;BME280;50547;49.498;0.092;2023-02-11T10:40:15;1035.66;;;10.61;80.04
64230;BME280;50547;49.498;0.092;2023-02-11T10:42:48;1035.68;;;10.65;80.23
64230;BME280;50547;49.498;0.092;2023-02-11T10:45:25;1035.70;;;10.70;80.04
64230;BME280;50547;49.498;0.092;2023-02-11T10:47:55;1035.68;;;10.64;80.38
64230;BME280;50547;49.498;0.092;2023-02-11T10:50:26;1035.72;;;10.46;81.27
64230;BME280;50547;49.498;0.092;2023-02-11T10:53:11;1035.80;;;10.23;81.98
64230;BME280;50547;49.498;0.092;2023-02-11T10:55:49;1035.82;;;9.91;83.05
64230;BME280;50547;49.498;0.092;2023-02-11T10:58:24;1035.88;;;9.80;82.98
64230;BME280;50547;49.498;0.092;2023-02-11T11:00:55;1035.86;;;9.55;83.67
64230;BME280;50547;49.498;0.092;2023-02-11T11:03:28;1035.82;;;9.54;83.60
64230;BME280;50547;49.498;0.092;2023-02-11T11:05:59;1035.82;;;9.51;83.52
64230;BME280;50547;49.498;0.092;2023-02-11T11:08:39;1035.88;;;9.58;83.18
64230;BME280;50547;49.498;0.092;2023-02-11T11:11:11;1035.86;;;9.55;83.39
64230;BME280;50547;49.498;0.092;2023-02-11T11:13:54;1035.88;;;9.39;84.26
64230;BME280;50547;49.498;0.092;2023-02-11T11:16:24;1035.86;;;9.61;83.04
64230;BME280;50547;49.498;0.092;2023-02-11T11:19:14;1035.80;;;9.49;83.72
64230;BME280;50547;49.498;0.092;2023-02-11T11:21:49;1035.78;;;9.58;83.51
64230;BME280;50547;49.498;0.092;2023-02-11T11:24:21;1035.74;;;9.48;84.03
64230;BME280;50547;49.498;0.092;2023-02-11T11:27:03;1035.68;;;9.54;83.92
64230;BME280;50547;49.498;0.092;2023-02-11T11:29:36;1035.68;;;9.62;83.51
64230;BME280;50547;49.498;0.092;2023-02-11T11:32:11;1035.64;;;9.42;84.54
64230;BME280;50547;49.498;0.092;2023-02-11T11:34:43;1035.64;;;9.40;84.48
64230;BME280;50547;49.498;0.092;2023-02-11T11:37:20;1035.56;;;9.40;84.55
64230;BME280;50547;49.498;0.092;2023-02-11T11:39:59;1035.54;;;9.37;84.74
64230;BME280;50547;49.498;0.092;2023-02-11T11:42:32;1035.52;;;9.41;84.69
64230;BME280;50547;49.498;0.092;2023-02-11T11:45:19;1035.48;;;9.55;83.99
64230;BME280;50547;49.498;0.092;2023-02-11T11:47:58;1035.46;;;9.48;84.15
64230;BME280;50547;49.498;0.092;2023-02-11T11:50:32;1035.44;;;9.54;84.26
64230;BME280;50547;49.498;0.092;2023-02-11T11:53:04;1035.50;;;9.62;84.04
64230;BME280;50547;49.498;0.092;2023-02-11T11:55:40;1035.50;;;9.47;84.77
64230;BME280;50547;49.498;0.092;2023-02-11T11:58:14;1035.46;;;9.38;85.22
64230;BME280;50547;49.498;0.092;2023-02-11T12:00:52;1035.44;;;9.37;85.18
64230;BME280;50547;49.498;0.092;2023-02-11T12:03:58;1035.43;;;9.38;85.01
64230;BME280;50547;49.498;0.092;2023-02-11T12:06:40;1035.46;;;9.50;84.74
64230;BME280;50547;49.498;0.092;2023-02-11T12:09:20;1035.50;;;9.73;84.23
64230;BME280;50547;49.498;0.092;2023-02-11T12:12:08;1035.52;;;9.72;84.54
64230;BME280;50547;49.498;0.092;2023-02-11T12:14:45;1035.44;;;9.98;83.73
64230;BME280;50547;49.498;0.092;2023-02-11T12:17:26;1035.46;;;10.05;83.75
64230;BME280;50547;49.498;0.092;2023-02-11T12:20:16;1035.46;;;9.84;84.77
64230;BME280;50547;49.498;0.092;2023-02-11T12:22:59;1035.37;;;9.92;84.40
64230;BME280;50547;49.498;0.092;2023-02-11T12:25:38;1035.33;;;9.95;84.22
64230;BME280;50547;49.498;0.092;2023-02-11T12:28:19;1035.33;;;9.95;84.23
64230;BME280;50547;49.498;0.092;2023-02-11T12:30:59;1035.33;;;10.10;83.63
64230;BME280;50547;49.498;0.092;2023-02-11T12:33:46;1035.29;;;10.27;83.00
64230;BME280;50547;49.498;0.092;2023-02-11T12:36:30;1035.25;;;10.42;82.96
64230;BME280;50547;49.498;0.092;2023-02-11T12:39:10;1035.29;;;10.64;82.47
64230;BME280;50547;49.498;0.092;2023-02-11T12:42:02;1035.29;;;10.69;82.53
64230;BME280;50547;49.498;0.092;2023-02-11T12:44:48;1035.27;;;10.42;83.60
64230;BME280;50547;49.498;0.092;2023-02-11T12:47:29;1035.25;;;10.21;84.41
64230;BME280;50547;49.498;0.092;2023-02-11T12:50:10;1035.23;;;10.15;84.11
64230;BME280;50547;49.498;0.092;2023-02-11T12:52:50;1035.21;;;10.10;84.01
64230;BME280;50547;49.498;0.092;2023-02-11T12:55:25;1035.15;;;9.97;84.16
64230;BME280;50547;49.498;0.092;2023-02-11T12:57:57;1035.09;;;10.18;82.90
64230;BME280;50547;49.498;0.092;2023-02-11T13:00:39;1035.05;;;10.16;83.05
64230;BME280;50547;49.498;0.092;2023-02-11T13:03:14;1035.03;;;10.22;83.30
64230;BME280;50547;49.498;0.092;2023-02-11T13:05:46;1035.01;;;10.04;84.01
64230;BME280;50547;49.498;0.092;2023-02-11T13:08:20;1034.92;;;9.98;83.93
64230;BME280;50547;49.498;0.092;2023-02-11T13:11:17;1034.96;;;9.96;83.97
64230;BME280;50547;49.498;0.092;2023-02-11T13:13:52;1034.96;;;9.95;83.91
64230;BME280;50547;49.498;0.092;2023-02-11T13:16:32;1034.96;;;10.04;83.51
64230;BME280;50547;49.498;0.092;2023-02-11T13:19:12;1034.94;;;10.20;83.22
64230;BME280;50547;49.498;0.092;2023-02-11T13:22:08;1034.94;;;10.13;83.65
64230;BME280;50547;49.498;0.092;2023-02-11T13:24:43;1034.92;;;10.13;83.54
64230;BME280;50547;49.498;0.092;2023-02-11T13:27:24;1034.90;;;10.29;82.94
64230;BME280;50547;49.498;0.092;2023-02-11T13:30:12;1034.92;;;10.22;83.27
64230;BME280;50547;49.498;0.092;2023-02-11T13:33:15;1034.92;;;10.27;83.19
64230;BME280;50547;49.498;0.092;2023-02-11T13:35:48;1034.86;;;10.14;83.61
64230;BME280;50547;49.498;0.092;2023-02-11T13:38:35;1034.80;;;10.08;83.61
64230;BME280;50547;49.498;0.092;2023-02-11T13:41:18;1034.80;;;10.05;83.76
64230;BME280;50547;49.498;0.092;2023-02-11T13:43:59;1034.82;;;10.00;84.01
64230;BME280;50547;49.498;0.092;2023-02-11T13:46:49;1034.84;;;10.09;83.68
64230;BME280;50547;49.498;0.092;2023-02-11T13:49:21;1034.86;;;10.21;83.13
64230;BME280;50547;49.498;0.092;2023-02-11T13:51:52;1034.82;;;10.24;83.21
64230;BME280;50547;49.498;0.092;2023-02-11T13:54:27;1034.80;;;10.15;83.66
64230;BME280;50547;49.498;0.092;2023-02-11T14:01:40;1034.78;;;10.61;81.75